sensor_id;sensor_type;location;lat;lon;timestamp;pressure;altitude;pressure_sealevel;temperature;humidity
45941;BME280;31858;46.008;8.978;2022-09-14T00:06:54;94346.34;;;19.73;100.00
45941;BME280;31858;46.008;8.978;2022-09-14T00:16:56;94324.72;;;19.73;100.00
45941;BME280;31858;46.008;8.978;2022-09-14T00:26:59;94311.75;;;19.68;100.00
45941;BME280;31858;46.008;8.978;2022-09-14T00:37:01;94335.88;;;19.62;100.00
45941;BME280;31858;46.008;8.978;2022-09-14T00:47:04;94322.91;;;19.57;100.00
45941;BME280;31858;46.008;8.978;2022-09-14T00:57:06;94314.25;;;19.75;100.00
45941;BME280;31858;46.008;8.978;2022-09-14T01:07:16;94293.72;;;19.52;100.00
45941;BME280;31858;46.008;8.978;2022-09-14T01:17:24;94285.09;;;19.44;100.00
45941;BME280;31858;46.008;8.978;2022-09-14T01:27:33;94268.66;;;19.51;100.00
45941;BME280;31858;46.008;8.978;2022-09-14T01:37:42;94263.16;;;19.42;100.00
45941;BME280;31858;46.008;8.978;2022-09-14T01:47:50;94247.69;;;19.43;100.00
45941;BME280;31858;46.008;8.978;2022-09-14T01:58:00;94231.50;;;19.30;100.00
45941;BME280;31858;46.008;8.978;2022-09-14T02:08:04;94209.91;;;19.30;100.00
45941;BME280;31858;46.008;8.978;2022-09-14T02:18:06;94219.22;;;19.51;100.00
45941;BME280;31858;46.008;8.978;2022-09-14T02:28:09;94209.44;;;19.44;100.00
45941;BME280;31858;46.008;8.978;2022-09-14T02:38:19;94212.72;;;19.27;100.00
45941;BME280;31858;46.008;8.978;2022-09-14T02:48:33;94202.97;;;19.29;100.00
45941;BME280;31858;46.008;8.978;2022-09-14T02:58:39;94228.81;;;19.17;100.00
45941;BME280;31858;46.008;8.978;2022-09-14T03:08:42;94210.66;;;19.18;100.00
45941;BME280;31858;46.008;8.978;2022-09-14T03:18:43;94222.44;;;19.24;100.00
45941;BME280;31858;46.008;8.978;2022-09-14T03:28:50;94232.59;;;19.20;100.00
45941;BME280;31858;46.008;8.978;2022-09-14T03:38:53;94222.00;;;19.13;100.00
45941;BME280;31858;46.008;8.978;2022-09-14T03:48:57;94225.91;;;19.12;100.00
45941;BME280;31858;46.008;8.978;2022-09-14T03:58:58;94234.09;;;19.21;100.00
45941;BME280;31858;46.008;8.978;2022-09-14T04:09:01;94222.78;;;19.01;100.00
45941;BME280;31858;46.008;8.978;2022-09-14T04:19:03;94221.56;;;18.89;100.00
45941;BME280;31858;46.008;8.978;2022-09-14T04:29:06;94196.53;;;19.14;100.00
45941;BME280;31858;46.008;8.978;2022-09-14T04:39:11;94168.00;;;19.13;100.00
45941;BME280;31858;46.008;8.978;2022-09-14T04:49:16;94171.38;;;18.79;100.00
45941;BME280;31858;46.008;8.978;2022-09-14T04:59:18;94161.22;;;18.70;100.00
45941;BME280;31858;46.008;8.978;2022-09-14T05:09:21;94159.59;;;18.73;100.00
45941;BME280;31858;46.008;8.978;2022-09-14T05:19:22;94166.50;;;18.61;100.00
45941;BME280;31858;46.008;8.978;2022-09-14T05:29:25;94148.88;;;18.56;100.00
45941;BME280;31858;46.008;8.978;2022-09-14T05:39:28;94145.09;;;18.54;100.00
45941;BME280;31858;46.008;8.978;2022-09-14T05:49:31;94149.97;;;18.59;100.00
45941;BME280;31858;46.008;8.978;2022-09-14T05:59:33;94164.13;;;18.63;100.00
45941;BME280;31858;46.008;8.978;2022-09-14T06:09:36;94194.03;;;18.69;100.00
45941;BME280;31858;46.008;8.978;2022-09-14T06:19:37;94196.19;;;18.74;100.00
45941;BME280;31858;46.008;8.978;2022-09-14T06:29:40;94192.63;;;18.77;100.00
45941;BME280;31858;46.008;8.978;2022-09-14T06:39:42;94201.16;;;18.75;100.00
45941;BME280;31858;46.008;8.978;2022-09-14T06:49:45;94192.84;;;18.82;100.00
45941;BME280;31858;46.008;8.978;2022-09-14T06:59:49;94217.25;;;18.92;100.00
45941;BME280;31858;46.008;8.978;2022-09-14T07:09:52;94249.97;;;18.94;100.00
45941;BME280;31858;46.008;8.978;2022-09-14T07:19:53;94287.22;;;18.86;100.00
45941;BME280;31858;46.008;8.978;2022-09-14T07:29:56;94306.44;;;18.88;100.00
45941;BME280;31858;46.008;8.978;2022-09-14T07:39:58;94338.66;;;19.08;100.00
45941;BME280;31858;46.008;8.978;2022-09-14T07:50:02;94337.50;;;19.21;100.00
45941;BME280;31858;46.008;8.978;2022-09-14T08:00:04;94356.06;;;19.07;100.00
45941;BME280;31858;46.008;8.978;2022-09-14T08:10:08;94339.41;;;19.08;100.00
45941;BME280;31858;46.008;8.978;2022-09-14T08:20:09;94370.44;;;19.16;100.00
45941;BME280;31858;46.008;8.978;2022-09-14T08:30:13;94361.25;;;19.27;100.00
45941;BME280;31858;46.008;8.978;2022-09-14T08:40:14;94373.16;;;19.29;100.00
45941;BME280;31858;46.008;8.978;2022-09-14T08:50:20;94361.59;;;19.41;100.00
45941;BME280;31858;46.008;8.978;2022-09-14T09:00:24;94366.16;;;19.44;100.00
45941;BME280;31858;46.008;8.978;2022-09-14T09:10:31;94364.72;;;19.40;100.00
45941;BME280;31858;46.008;8.978;2022-09-14T09:20:36;94347.00;;;19.51;100.00
45941;BME280;31858;46.008;8.978;2022-09-14T09:30:40;94334.16;;;19.55;100.00
45941;BME280;31858;46.008;8.978;2022-09-14T09:40:47;94280.63;;;19.63;100.00
45941;BME280;31858;46.008;8.978;2022-09-14T09:51:04;94225.13;;;19.84;100.00
45941;BME280;31858;46.008;8.978;2022-09-14T10:01:18;94168.47;;;20.02;100.00
45941;BME280;31858;46.008;8.978;2022-09-14T10:11:31;94166.09;;;20.26;100.00
45941;BME280;31858;46.008;8.978;2022-09-14T10:22:03;94171.31;;;20.20;100.00
45941;BME280;31858;46.008;8.978;2022-09-14T10:32:18;94161.38;;;20.17;100.00
45941;BME280;31858;46.008;8.978;2022-09-14T10:42:28;94170.69;;;20.16;100.00
45941;BME280;31858;46.008;8.978;2022-09-14T10:52:39;94145.41;;;20.10;100.00
45941;BME280;31858;46.008;8.978;2022-09-14T11:03:00;94146.38;;;20.26;100.00
45941;BME280;31858;46.008;8.978;2022-09-14T11:13:31;94133.00;;;20.44;100.00
45941;BME280;31858;46.008;8.978;2022-09-14T11:23:44;94123.81;;;20.91;100.00
45941;BME280;31858;46.008;8.978;2022-09-14T11:33:53;94120.88;;;21.16;100.00
45941;BME280;31858;46.008;8.978;2022-09-14T11:44:00;94135.06;;;21.29;100.00
45941;BME280;31858;46.008;8.978;2022-09-14T11:54:09;94137.78;;;21.29;100.00
45941;BME280;31858;46.008;8.978;2022-09-14T12:04:13;94147.28;;;21.34;100.00
45941;BME280;31858;46.008;8.978;2022-09-14T12:14:29;94143.06;;;21.33;100.00
45941;BME280;31858;46.008;8.978;2022-09-14T12:24:33;94143.03;;;21.24;100.00
45941;BME280;31858;46.008;8.978;2022-09-14T12:34:36;94141.63;;;21.19;100.00
45941;BME280;31858;46.008;8.978;2022-09-14T12:44:38;94153.22;;;21.20;100.00
45941;BME280;31858;46.008;8.978;2022-09-14T12:54:49;94116.06;;;21.20;100.00
45941;BME280;31858;46.008;8.978;2022-09-14T13:04:56;94111.91;;;21.37;100.00
45941;BME280;31858;46.008;8.978;2022-09-14T13:15:02;94123.34;;;21.41;100.00
45941;BME280;31858;46.008;8.978;2022-09-14T13:25:05;94135.38;;;21.31;100.00
45941;BME280;31858;46.008;8.978;2022-09-14T13:35:15;94128.44;;;21.30;100.00
45941;BME280;31858;46.008;8.978;2022-09-14T13:45:18;94122.06;;;21.15;100.00
45941;BME280;31858;46.008;8.978;2022-09-14T13:55:26;94106.09;;;21.08;100.00
45941;BME280;31858;46.008;8.978;2022-09-14T14:05:29;94097.06;;;21.02;100.00
45941;BME280;31858;46.008;8.978;2022-09-14T14:15:39;94092.44;;;21.21;100.00
45941;BME280;31858;46.008;8.978;2022-09-14T14:25:43;94076.81;;;21.25;100.00
45941;BME280;31858;46.008;8.978;2022-09-14T14:35:49;94058.59;;;21.53;100.00
45941;BME280;31858;46.008;8.978;2022-09-14T14:45:55;94067.28;;;22.02;100.00
45941;BME280;31858;46.008;8.978;2022-09-14T14:55:59;94056.88;;;22.10;100.00
45941;BME280;31858;46.008;8.978;2022-09-14T15:06:09;94053.47;;;21.73;100.00
45941;BME280;31858;46.008;8.978;2022-09-14T15:16:13;94064.16;;;21.58;100.00
45941;BME280;31858;46.008;8.978;2022-09-14T15:26:15;94050.47;;;21.34;100.00
45941;BME280;31858;46.008;8.978;2022-09-14T15:36:39;94029.41;;;21.29;100.00
45941;BME280;31858;46.008;8.978;2022-09-14T15:46:42;94014.63;;;21.39;100.00
45941;BME280;31858;46.008;8.978;2022-09-14T15:56:48;94011.47;;;21.32;100.00
45941;BME280;31858;46.008;8.978;2022-09-14T16:06:50;94012.53;;;21.25;100.00
45941;BME280;31858;46.008;8.978;2022-09-14T16:16:53;94014.63;;;21.21;100.00
45941;BME280;31858;46.008;8.978;2022-09-14T16:26:54;93996.25;;;21.07;100.00
45941;BME280;31858;46.008;8.978;2022-09-14T16:36:58;93989.63;;;20.99;100.00
45941;BME280;31858;46.008;8.978;2022-09-14T16:47:00;93989.63;;;20.99;100.00
45941;BME280;31858;46.008;8.978;2022-09-14T16:57:03;93992.94;;;21.21;100.00
45941;BME280;31858;46.008;8.978;2022-09-14T17:07:05;94003.47;;;20.92;100.00
45941;BME280;31858;46.008;8.978;2022-09-14T17:17:07;93994.59;;;20.73;100.00
45941;BME280;31858;46.008;8.978;2022-09-14T17:27:09;94002.25;;;20.65;100.00
45941;BME280;31858;46.008;8.978;2022-09-14T17:37:12;93994.41;;;20.58;100.00
45941;BME280;31858;46.008;8.978;2022-09-14T17:47:14;93999.84;;;20.58;100.00
45941;BME280;31858;46.008;8.978;2022-09-14T17:57:17;93999.06;;;20.58;100.00
45941;BME280;31858;46.008;8.978;2022-09-14T18:07:19;94003.44;;;20.55;100.00
45941;BME280;31858;46.008;8.978;2022-09-14T18:17:22;94016.22;;;20.64;100.00
45941;BME280;31858;46.008;8.978;2022-09-14T18:27:23;94028.72;;;20.30;100.00
45941;BME280;31858;46.008;8.978;2022-09-14T18:37:26;94026.47;;;19.45;100.00
45941;BME280;31858;46.008;8.978;2022-09-14T18:47:28;94034.63;;;19.10;100.00
45941;BME280;31858;46.008;8.978;2022-09-14T18:57:31;94030.56;;;18.93;100.00
45941;BME280;31858;46.008;8.978;2022-09-14T19:07:34;94026.72;;;18.81;100.00
45941;BME280;31858;46.008;8.978;2022-09-14T19:17:37;94030.50;;;18.71;100.00
45941;BME280;31858;46.008;8.978;2022-09-14T19:27:39;94025.66;;;18.53;100.00
45941;BME280;31858;46.008;8.978;2022-09-14T19:37:41;94024.69;;;18.35;100.00
45941;BME280;31858;46.008;8.978;2022-09-14T19:47:43;94025.34;;;18.39;100.00
45941;BME280;31858;46.008;8.978;2022-09-14T19:57:46;94019.50;;;18.40;100.00
45941;BME280;31858;46.008;8.978;2022-09-14T20:07:48;94021.25;;;18.34;100.00
45941;BME280;31858;46.008;8.978;2022-09-14T20:17:53;93997.09;;;18.31;100.00
45941;BME280;31858;46.008;8.978;2022-09-14T20:27:55;93999.16;;;18.14;100.00
45941;BME280;31858;46.008;8.978;2022-09-14T20:37:58;93988.13;;;18.34;100.00
45941;BME280;31858;46.008;8.978;2022-09-14T20:48:00;93989.19;;;18.36;100.00
45941;BME280;31858;46.008;8.978;2022-09-14T20:58:03;93991.13;;;18.48;100.00
45941;BME280;31858;46.008;8.978;2022-09-14T21:08:04;93996.19;;;18.59;100.00
45941;BME280;31858;46.008;8.978;2022-09-14T21:18:07;94007.75;;;18.47;100.00
45941;BME280;31858;46.008;8.978;2022-09-14T21:28:09;94003.34;;;18.40;100.00
45941;BME280;31858;46.008;8.978;2022-09-14T21:38:12;93996.09;;;18.37;100.00
45941;BME280;31858;46.008;8.978;2022-09-14T21:48:13;93992.97;;;18.51;100.00
45941;BME280;31858;46.008;8.978;2022-09-14T21:58:17;94005.47;;;18.58;100.00
45941;BME280;31858;46.008;8.978;2022-09-14T22:08:19;94019.72;;;18.71;100.00
45941;BME280;31858;46.008;8.978;2022-09-14T22:18:22;94021.44;;;18.65;100.00
45941;BME280;31858;46.008;8.978;2022-09-14T22:28:24;94015.50;;;18.57;100.00
45941;BME280;31858;46.008;8.978;2022-09-14T22:38:28;94008.94;;;18.46;100.00
45941;BME280;31858;46.008;8.978;2022-09-14T22:48:30;93996.97;;;18.34;100.00
45941;BME280;31858;46.008;8.978;2022-09-14T22:58:33;93986.81;;;18.38;100.00
45941;BME280;31858;46.008;8.978;2022-09-14T23:08:35;93997.81;;;18.44;100.00
45941;BME280;31858;46.008;8.978;2022-09-14T23:18:39;93967.50;;;18.40;100.00
45941;BME280;31858;46.008;8.978;2022-09-14T23:28:40;93942.44;;;18.52;100.00
45941;BME280;31858;46.008;8.978;2022-09-14T23:38:44;93938.88;;;18.68;100.00
45941;BME280;31858;46.008;8.978;2022-09-14T23:48:47;93946.13;;;18.45;100.00
45941;BME280;31858;46.008;8.978;2022-09-14T23:58:50;93947.22;;;18.48;100.00
